sensor_id;sensor_type;location;lat;lon;timestamp;P1;durP1;ratioP1;P2;durP2;ratioP2
15273;SDS011;7738;49.532;11.156;2023-01-28T00:01:29;8.53;;;4.47;;
15273;SDS011;7738;49.532;11.156;2023-01-28T00:03:59;4.80;;;4.30;;
15273;SDS011;7738;49.532;11.156;2023-01-28T00:06:32;7.23;;;4.10;;
15273;SDS011;7738;49.532;11.156;2023-01-28T00:09:03;6.28;;;4.35;;
15273;SDS011;7738;49.532;11.156;2023-01-28T00:11:33;6.83;;;4.20;;
15273;SDS011;7738;49.532;11.156;2023-01-28T00:14:04;5.53;;;3.83;;
15273;SDS011;7738;49.532;11.156;2023-01-28T00:16:34;6.97;;;4.23;;
15273;SDS011;7738;49.532;11.156;2023-01-28T00:19:04;5.93;;;3.90;;
15273;SDS011;7738;49.532;11.156;2023-01-28T00:21:37;5.90;;;4.63;;
15273;SDS011;7738;49.532;11.156;2023-01-28T00:24:07;7.13;;;4.40;;
15273;SDS011;7738;49.532;11.156;2023-01-28T00:26:38;6.33;;;4.70;;
15273;SDS011;7738;49.532;11.156;2023-01-28T00:29:08;8.40;;;4.53;;
15273;SDS011;7738;49.532;11.156;2023-01-28T00:31:38;6.77;;;4.50;;
15273;SDS011;7738;49.532;11.156;2023-01-28T00:34:09;6.20;;;4.13;;
15273;SDS011;7738;49.532;11.156;2023-01-28T00:36:42;6.20;;;4.20;;
15273;SDS011;7738;49.532;11.156;2023-01-28T00:39:22;7.63;;;4.27;;
15273;SDS011;7738;49.532;11.156;2023-01-28T00:41:53;6.13;;;4.23;;
15273;SDS011;7738;49.532;11.156;2023-01-28T00:44:23;5.53;;;4.33;;
15273;SDS011;7738;49.532;11.156;2023-01-28T00:46:53;9.77;;;5.30;;
15273;SDS011;7738;49.532;11.156;2023-01-28T00:49:23;7.87;;;5.10;;
15273;SDS011;7738;49.532;11.156;2023-01-28T00:51:56;6.47;;;4.90;;
15273;SDS011;7738;49.532;11.156;2023-01-28T00:54:27;9.83;;;5.30;;
15273;SDS011;7738;49.532;11.156;2023-01-28T00:56:58;9.27;;;4.73;;
15273;SDS011;7738;49.532;11.156;2023-01-28T00:59:29;7.13;;;4.70;;
15273;SDS011;7738;49.532;11.156;2023-01-28T01:01:59;7.63;;;4.80;;
15273;SDS011;7738;49.532;11.156;2023-01-28T01:04:38;7.10;;;4.67;;
15273;SDS011;7738;49.532;11.156;2023-01-28T01:07:24;12.13;;;5.87;;
15273;SDS011;7738;49.532;11.156;2023-01-28T01:10:00;7.80;;;5.40;;
15273;SDS011;7738;49.532;11.156;2023-01-28T01:12:30;9.90;;;5.83;;
15273;SDS011;7738;49.532;11.156;2023-01-28T01:15:01;7.43;;;5.23;;
15273;SDS011;7738;49.532;11.156;2023-01-28T01:17:34;7.73;;;5.27;;
15273;SDS011;7738;49.532;11.156;2023-01-28T01:20:06;9.50;;;5.23;;
15273;SDS011;7738;49.532;11.156;2023-01-28T01:22:41;10.77;;;5.10;;
15273;SDS011;7738;49.532;11.156;2023-01-28T01:25:11;9.40;;;5.87;;
15273;SDS011;7738;49.532;11.156;2023-01-28T01:27:43;7.70;;;4.87;;
15273;SDS011;7738;49.532;11.156;2023-01-28T01:30:16;10.45;;;6.35;;
15273;SDS011;7738;49.532;11.156;2023-01-28T01:32:48;10.27;;;5.33;;
15273;SDS011;7738;49.532;11.156;2023-01-28T01:35:18;10.03;;;6.10;;
15273;SDS011;7738;49.532;11.156;2023-01-28T01:37:50;9.83;;;5.50;;
15273;SDS011;7738;49.532;11.156;2023-01-28T01:40:20;7.73;;;5.43;;
15273;SDS011;7738;49.532;11.156;2023-01-28T01:42:51;9.23;;;5.97;;
15273;SDS011;7738;49.532;11.156;2023-01-28T01:45:21;12.43;;;7.37;;
15273;SDS011;7738;49.532;11.156;2023-01-28T01:47:52;9.53;;;6.30;;
15273;SDS011;7738;49.532;11.156;2023-01-28T01:50:28;10.93;;;5.67;;
15273;SDS011;7738;49.532;11.156;2023-01-28T01:53:06;11.80;;;7.07;;
15273;SDS011;7738;49.532;11.156;2023-01-28T01:55:40;12.43;;;6.83;;
15273;SDS011;7738;49.532;11.156;2023-01-28T01:58:15;12.17;;;7.00;;
15273;SDS011;7738;49.532;11.156;2023-01-28T02:00:48;10.43;;;6.72;;
15273;SDS011;7738;49.532;11.156;2023-01-28T02:03:20;12.37;;;7.80;;
15273;SDS011;7738;49.532;11.156;2023-01-28T02:05:56;12.90;;;7.40;;
15273;SDS011;7738;49.532;11.156;2023-01-28T02:08:29;13.30;;;7.77;;
15273;SDS011;7738;49.532;11.156;2023-01-28T02:11:00;15.90;;;8.10;;
15273;SDS011;7738;49.532;11.156;2023-01-28T02:13:33;12.37;;;6.53;;
15273;SDS011;7738;49.532;11.156;2023-01-28T02:16:08;12.63;;;7.27;;
15273;SDS011;7738;49.532;11.156;2023-01-28T02:18:40;12.67;;;7.70;;
15273;SDS011;7738;49.532;11.156;2023-01-28T02:24:28;15.67;;;7.57;;
15273;SDS011;7738;49.532;11.156;2023-01-28T02:27:16;14.20;;;8.57;;
15273;SDS011;7738;49.532;11.156;2023-01-28T02:29:56;13.90;;;8.07;;
15273;SDS011;7738;49.532;11.156;2023-01-28T02:32:32;13.27;;;7.13;;
15273;SDS011;7738;49.532;11.156;2023-01-28T02:35:11;14.03;;;7.03;;
15273;SDS011;7738;49.532;11.156;2023-01-28T02:37:45;15.77;;;8.77;;
15273;SDS011;7738;49.532;11.156;2023-01-28T02:40:21;15.13;;;7.80;;
15273;SDS011;7738;49.532;11.156;2023-01-28T02:42:56;13.50;;;7.67;;
15273;SDS011;7738;49.532;11.156;2023-01-28T02:45:30;14.27;;;8.20;;
15273;SDS011;7738;49.532;11.156;2023-01-28T02:48:14;12.20;;;7.80;;
15273;SDS011;7738;49.532;11.156;2023-01-28T02:50:46;15.13;;;9.10;;
15273;SDS011;7738;49.532;11.156;2023-01-28T02:53:21;14.38;;;8.40;;
15273;SDS011;7738;49.532;11.156;2023-01-28T02:56:14;16.33;;;9.20;;
15273;SDS011;7738;49.532;11.156;2023-01-28T02:58:59;13.33;;;8.80;;
15273;SDS011;7738;49.532;11.156;2023-01-28T03:01:58;13.73;;;7.80;;
15273;SDS011;7738;49.532;11.156;2023-01-28T03:04:37;13.73;;;7.70;;
15273;SDS011;7738;49.532;11.156;2023-01-28T03:07:12;16.17;;;8.40;;
15273;SDS011;7738;49.532;11.156;2023-01-28T03:09:44;14.83;;;8.70;;
15273;SDS011;7738;49.532;11.156;2023-01-28T03:12:15;15.73;;;8.33;;
15273;SDS011;7738;49.532;11.156;2023-01-28T03:15:02;12.93;;;7.97;;
15273;SDS011;7738;49.532;11.156;2023-01-28T03:17:51;17.50;;;8.17;;
15273;SDS011;7738;49.532;11.156;2023-01-28T03:20:40;15.33;;;7.37;;
15273;SDS011;7738;49.532;11.156;2023-01-28T03:23:29;14.43;;;8.97;;
15273;SDS011;7738;49.532;11.156;2023-01-28T03:26:18;15.50;;;7.60;;
15273;SDS011;7738;49.532;11.156;2023-01-28T03:29:05;17.27;;;8.20;;
15273;SDS011;7738;49.532;11.156;2023-01-28T03:31:51;16.13;;;9.27;;
15273;SDS011;7738;49.532;11.156;2023-01-28T03:34:37;13.60;;;8.10;;
15273;SDS011;7738;49.532;11.156;2023-01-28T03:37:19;15.80;;;9.23;;
15273;SDS011;7738;49.532;11.156;2023-01-28T03:40:19;15.80;;;8.30;;
15273;SDS011;7738;49.532;11.156;2023-01-28T03:42:49;20.33;;;9.17;;
15273;SDS011;7738;49.532;11.156;2023-01-28T03:45:32;14.23;;;8.37;;
15273;SDS011;7738;49.532;11.156;2023-01-28T03:48:05;17.93;;;8.90;;
15273;SDS011;7738;49.532;11.156;2023-01-28T03:50:37;15.43;;;8.57;;
15273;SDS011;7738;49.532;11.156;2023-01-28T03:53:07;16.87;;;8.50;;
15273;SDS011;7738;49.532;11.156;2023-01-28T03:55:47;22.40;;;9.97;;
15273;SDS011;7738;49.532;11.156;2023-01-28T03:58:18;16.40;;;8.90;;
15273;SDS011;7738;49.532;11.156;2023-01-28T04:00:53;20.90;;;9.67;;
15273;SDS011;7738;49.532;11.156;2023-01-28T04:03:23;18.13;;;9.50;;
15273;SDS011;7738;49.532;11.156;2023-01-28T04:06:03;18.20;;;9.80;;
15273;SDS011;7738;49.532;11.156;2023-01-28T04:08:46;19.33;;;9.17;;
15273;SDS011;7738;49.532;11.156;2023-01-28T04:11:37;20.30;;;10.40;;
15273;SDS011;7738;49.532;11.156;2023-01-28T04:14:08;20.20;;;9.53;;
15273;SDS011;7738;49.532;11.156;2023-01-28T04:17:02;17.90;;;8.87;;
15273;SDS011;7738;49.532;11.156;2023-01-28T04:19:33;21.30;;;10.07;;
15273;SDS011;7738;49.532;11.156;2023-01-28T04:22:09;19.67;;;10.13;;
15273;SDS011;7738;49.532;11.156;2023-01-28T04:24:41;22.67;;;10.07;;
15273;SDS011;7738;49.532;11.156;2023-01-28T04:27:11;23.60;;;10.83;;
15273;SDS011;7738;49.532;11.156;2023-01-28T04:29:41;19.17;;;9.70;;
15273;SDS011;7738;49.532;11.156;2023-01-28T04:32:28;18.90;;;9.17;;
15273;SDS011;7738;49.532;11.156;2023-01-28T04:35:06;21.03;;;10.33;;
15273;SDS011;7738;49.532;11.156;2023-01-28T04:37:55;17.37;;;10.27;;
15273;SDS011;7738;49.532;11.156;2023-01-28T04:40:30;19.00;;;11.17;;
15273;SDS011;7738;49.532;11.156;2023-01-28T04:43:08;17.37;;;9.17;;
15273;SDS011;7738;49.532;11.156;2023-01-28T04:45:50;16.93;;;9.80;;
15273;SDS011;7738;49.532;11.156;2023-01-28T04:48:38;20.20;;;11.10;;
15273;SDS011;7738;49.532;11.156;2023-01-28T04:51:29;22.97;;;11.53;;
15273;SDS011;7738;49.532;11.156;2023-01-28T04:54:25;20.57;;;11.70;;
15273;SDS011;7738;49.532;11.156;2023-01-28T04:56:58;19.60;;;9.80;;
15273;SDS011;7738;49.532;11.156;2023-01-28T04:59:29;21.03;;;10.10;;
15273;SDS011;7738;49.532;11.156;2023-01-28T05:02:00;23.87;;;11.37;;
15273;SDS011;7738;49.532;11.156;2023-01-28T05:04:31;16.13;;;8.50;;
15273;SDS011;7738;49.532;11.156;2023-01-28T05:07:01;20.73;;;9.80;;
15273;SDS011;7738;49.532;11.156;2023-01-28T05:09:34;21.37;;;11.13;;
15273;SDS011;7738;49.532;11.156;2023-01-28T05:12:05;24.00;;;11.07;;
15273;SDS011;7738;49.532;11.156;2023-01-28T05:14:36;22.67;;;10.90;;
15273;SDS011;7738;49.532;11.156;2023-01-28T05:19:41;17.23;;;9.13;;
15273;SDS011;7738;49.532;11.156;2023-01-28T05:22:17;20.30;;;11.13;;
15273;SDS011;7738;49.532;11.156;2023-01-28T05:25:08;21.50;;;11.23;;
15273;SDS011;7738;49.532;11.156;2023-01-28T05:27:38;18.08;;;10.60;;
15273;SDS011;7738;49.532;11.156;2023-01-28T05:30:10;22.57;;;10.60;;
15273;SDS011;7738;49.532;11.156;2023-01-28T05:32:41;19.30;;;9.97;;
15273;SDS011;7738;49.532;11.156;2023-01-28T05:35:14;17.70;;;9.80;;
15273;SDS011;7738;49.532;11.156;2023-01-28T05:37:44;23.50;;;9.83;;
15273;SDS011;7738;49.532;11.156;2023-01-28T05:40:18;22.83;;;10.60;;
15273;SDS011;7738;49.532;11.156;2023-01-28T05:42:49;22.08;;;10.75;;
15273;SDS011;7738;49.532;11.156;2023-01-28T05:45:32;18.47;;;9.43;;
15273;SDS011;7738;49.532;11.156;2023-01-28T05:48:17;19.23;;;10.17;;
15273;SDS011;7738;49.532;11.156;2023-01-28T05:51:06;20.40;;;9.83;;
15273;SDS011;7738;49.532;11.156;2023-01-28T05:53:40;22.40;;;11.32;;
15273;SDS011;7738;49.532;11.156;2023-01-28T05:56:13;20.83;;;10.47;;
15273;SDS011;7738;49.532;11.156;2023-01-28T05:58:43;19.40;;;10.73;;
15273;SDS011;7738;49.532;11.156;2023-01-28T06:01:14;20.53;;;10.20;;
15273;SDS011;7738;49.532;11.156;2023-01-28T06:03:51;18.40;;;9.37;;
15273;SDS011;7738;49.532;11.156;2023-01-28T06:06:21;19.97;;;9.47;;
15273;SDS011;7738;49.532;11.156;2023-01-28T06:08:51;17.93;;;9.83;;
15273;SDS011;7738;49.532;11.156;2023-01-28T06:14:01;20.67;;;9.20;;
15273;SDS011;7738;49.532;11.156;2023-01-28T06:17:04;17.57;;;9.43;;
15273;SDS011;7738;49.532;11.156;2023-01-28T06:19:42;22.87;;;10.43;;
15273;SDS011;7738;49.532;11.156;2023-01-28T06:22:13;25.17;;;9.97;;
15273;SDS011;7738;49.532;11.156;2023-01-28T06:24:43;20.50;;;10.13;;
15273;SDS011;7738;49.532;11.156;2023-01-28T06:27:16;20.77;;;10.80;;
15273;SDS011;7738;49.532;11.156;2023-01-28T06:29:46;22.43;;;10.83;;
15273;SDS011;7738;49.532;11.156;2023-01-28T06:32:16;24.47;;;11.70;;
15273;SDS011;7738;49.532;11.156;2023-01-28T06:34:47;23.73;;;11.17;;
15273;SDS011;7738;49.532;11.156;2023-01-28T06:37:20;22.42;;;11.48;;
15273;SDS011;7738;49.532;11.156;2023-01-28T06:39:51;20.00;;;11.30;;
15273;SDS011;7738;49.532;11.156;2023-01-28T06:42:24;26.10;;;13.40;;
15273;SDS011;7738;49.532;11.156;2023-01-28T06:44:54;30.50;;;14.13;;
15273;SDS011;7738;49.532;11.156;2023-01-28T06:47:24;28.07;;;11.97;;
15273;SDS011;7738;49.532;11.156;2023-01-28T06:49:55;23.30;;;10.83;;
15273;SDS011;7738;49.532;11.156;2023-01-28T06:52:25;24.70;;;12.97;;
15273;SDS011;7738;49.532;11.156;2023-01-28T06:54:55;23.57;;;12.80;;
15273;SDS011;7738;49.532;11.156;2023-01-28T06:57:29;24.17;;;12.10;;
15273;SDS011;7738;49.532;11.156;2023-01-28T06:59:59;25.17;;;12.20;;
15273;SDS011;7738;49.532;11.156;2023-01-28T07:02:30;22.80;;;12.47;;
15273;SDS011;7738;49.532;11.156;2023-01-28T07:05:00;27.27;;;11.90;;
15273;SDS011;7738;49.532;11.156;2023-01-28T07:07:31;24.30;;;11.53;;
15273;SDS011;7738;49.532;11.156;2023-01-28T07:10:01;23.93;;;11.57;;
15273;SDS011;7738;49.532;11.156;2023-01-28T07:12:34;23.73;;;9.50;;
15273;SDS011;7738;49.532;11.156;2023-01-28T07:15:04;20.80;;;10.40;;
15273;SDS011;7738;49.532;11.156;2023-01-28T07:17:37;20.90;;;9.40;;
15273;SDS011;7738;49.532;11.156;2023-01-28T07:20:09;24.57;;;10.43;;
15273;SDS011;7738;49.532;11.156;2023-01-28T07:22:42;21.47;;;10.50;;
15273;SDS011;7738;49.532;11.156;2023-01-28T07:25:13;22.93;;;10.53;;
15273;SDS011;7738;49.532;11.156;2023-01-28T07:27:51;17.07;;;9.00;;
15273;SDS011;7738;49.532;11.156;2023-01-28T07:30:21;17.50;;;8.20;;
15273;SDS011;7738;49.532;11.156;2023-01-28T07:32:52;15.57;;;8.57;;
15273;SDS011;7738;49.532;11.156;2023-01-28T07:35:22;20.33;;;8.43;;
15273;SDS011;7738;49.532;11.156;2023-01-28T07:37:53;12.97;;;6.87;;
15273;SDS011;7738;49.532;11.156;2023-01-28T07:40:25;11.37;;;7.23;;
15273;SDS011;7738;49.532;11.156;2023-01-28T07:42:58;12.93;;;6.17;;
15273;SDS011;7738;49.532;11.156;2023-01-28T07:45:35;10.87;;;6.27;;
15273;SDS011;7738;49.532;11.156;2023-01-28T07:48:06;10.93;;;6.23;;
15273;SDS011;7738;49.532;11.156;2023-01-28T07:50:38;12.27;;;6.57;;
15273;SDS011;7738;49.532;11.156;2023-01-28T07:53:09;12.27;;;6.67;;
15273;SDS011;7738;49.532;11.156;2023-01-28T07:55:40;10.80;;;5.77;;
15273;SDS011;7738;49.532;11.156;2023-01-28T07:58:13;10.30;;;5.60;;
15273;SDS011;7738;49.532;11.156;2023-01-28T08:00:43;10.93;;;5.87;;
15273;SDS011;7738;49.532;11.156;2023-01-28T08:03:13;10.00;;;5.03;;
15273;SDS011;7738;49.532;11.156;2023-01-28T08:05:44;10.20;;;6.00;;
15273;SDS011;7738;49.532;11.156;2023-01-28T08:08:16;10.87;;;6.13;;
15273;SDS011;7738;49.532;11.156;2023-01-28T08:10:46;11.57;;;5.67;;
15273;SDS011;7738;49.532;11.156;2023-01-28T08:13:19;5.97;;;4.00;;
15273;SDS011;7738;49.532;11.156;2023-01-28T08:15:53;7.77;;;4.53;;
15273;SDS011;7738;49.532;11.156;2023-01-28T08:18:27;7.13;;;3.53;;
15273;SDS011;7738;49.532;11.156;2023-01-28T08:20:58;7.57;;;4.47;;
15273;SDS011;7738;49.532;11.156;2023-01-28T08:23:30;6.27;;;3.57;;
15273;SDS011;7738;49.532;11.156;2023-01-28T08:26:01;6.33;;;4.63;;
15273;SDS011;7738;49.532;11.156;2023-01-28T08:28:35;6.43;;;4.07;;
15273;SDS011;7738;49.532;11.156;2023-01-28T08:31:05;6.70;;;4.23;;
15273;SDS011;7738;49.532;11.156;2023-01-28T08:33:35;7.70;;;3.63;;
15273;SDS011;7738;49.532;11.156;2023-01-28T08:36:06;4.80;;;3.23;;
15273;SDS011;7738;49.532;11.156;2023-01-28T08:38:36;3.47;;;3.17;;
15273;SDS011;7738;49.532;11.156;2023-01-28T08:41:07;6.63;;;3.43;;
15273;SDS011;7738;49.532;11.156;2023-01-28T08:43:39;6.73;;;4.00;;
15273;SDS011;7738;49.532;11.156;2023-01-28T08:46:09;3.93;;;3.43;;
15273;SDS011;7738;49.532;11.156;2023-01-28T08:48:40;6.47;;;3.33;;
15273;SDS011;7738;49.532;11.156;2023-01-28T08:51:10;4.67;;;3.77;;
15273;SDS011;7738;49.532;11.156;2023-01-28T08:53:40;4.00;;;3.17;;
15273;SDS011;7738;49.532;11.156;2023-01-28T08:56:11;5.27;;;3.00;;
15273;SDS011;7738;49.532;11.156;2023-01-28T08:58:44;6.93;;;3.30;;
15273;SDS011;7738;49.532;11.156;2023-01-28T09:01:14;4.53;;;3.77;;
15273;SDS011;7738;49.532;11.156;2023-01-28T09:03:44;5.90;;;2.73;;
15273;SDS011;7738;49.532;11.156;2023-01-28T09:06:15;4.50;;;3.20;;
15273;SDS011;7738;49.532;11.156;2023-01-28T09:08:45;4.17;;;2.93;;
15273;SDS011;7738;49.532;11.156;2023-01-28T09:11:16;4.20;;;3.00;;
15273;SDS011;7738;49.532;11.156;2023-01-28T09:13:49;7.90;;;3.67;;
15273;SDS011;7738;49.532;11.156;2023-01-28T09:16:19;6.23;;;3.90;;
15273;SDS011;7738;49.532;11.156;2023-01-28T09:18:49;4.27;;;2.90;;
15273;SDS011;7738;49.532;11.156;2023-01-28T09:21:20;5.27;;;2.47;;
15273;SDS011;7738;49.532;11.156;2023-01-28T09:23:50;3.20;;;2.83;;
15273;SDS011;7738;49.532;11.156;2023-01-28T09:26:21;7.20;;;3.03;;
15273;SDS011;7738;49.532;11.156;2023-01-28T09:28:54;4.10;;;2.50;;
15273;SDS011;7738;49.532;11.156;2023-01-28T09:31:24;4.27;;;2.70;;
15273;SDS011;7738;49.532;11.156;2023-01-28T09:33:54;3.27;;;2.90;;
15273;SDS011;7738;49.532;11.156;2023-01-28T09:36:25;2.97;;;2.67;;
15273;SDS011;7738;49.532;11.156;2023-01-28T09:38:55;3.43;;;2.47;;
15273;SDS011;7738;49.532;11.156;2023-01-28T09:41:26;3.57;;;2.80;;
15273;SDS011;7738;49.532;11.156;2023-01-28T09:44:05;2.83;;;2.47;;
15273;SDS011;7738;49.532;11.156;2023-01-28T09:46:44;3.17;;;2.83;;
15273;SDS011;7738;49.532;11.156;2023-01-28T09:49:16;3.30;;;2.33;;
15273;SDS011;7738;49.532;11.156;2023-01-28T09:51:52;5.83;;;2.40;;
15273;SDS011;7738;49.532;11.156;2023-01-28T09:54:26;3.37;;;2.30;;
15273;SDS011;7738;49.532;11.156;2023-01-28T09:57:02;3.27;;;2.27;;
15273;SDS011;7738;49.532;11.156;2023-01-28T09:59:38;3.13;;;2.30;;
15273;SDS011;7738;49.532;11.156;2023-01-28T10:02:17;5.80;;;2.73;;
15273;SDS011;7738;49.532;11.156;2023-01-28T10:04:57;4.33;;;2.60;;
15273;SDS011;7738;49.532;11.156;2023-01-28T10:07:33;3.97;;;2.57;;
15273;SDS011;7738;49.532;11.156;2023-01-28T10:10:10;4.20;;;2.40;;
15273;SDS011;7738;49.532;11.156;2023-01-28T10:12:48;5.37;;;2.40;;
15273;SDS011;7738;49.532;11.156;2023-01-28T10:15:44;2.13;;;1.93;;
15273;SDS011;7738;49.532;11.156;2023-01-28T10:18:20;3.17;;;2.43;;
15273;SDS011;7738;49.532;11.156;2023-01-28T10:21:05;4.70;;;2.43;;
15273;SDS011;7738;49.532;11.156;2023-01-28T10:23:44;3.20;;;2.20;;
15273;SDS011;7738;49.532;11.156;2023-01-28T10:26:21;2.70;;;1.80;;
15273;SDS011;7738;49.532;11.156;2023-01-28T10:28:53;2.77;;;2.43;;
15273;SDS011;7738;49.532;11.156;2023-01-28T10:31:30;2.83;;;2.63;;
15273;SDS011;7738;49.532;11.156;2023-01-28T10:34:04;2.40;;;2.00;;
15273;SDS011;7738;49.532;11.156;2023-01-28T10:36:34;2.90;;;2.47;;
15273;SDS011;7738;49.532;11.156;2023-01-28T10:39:05;3.53;;;2.53;;
15273;SDS011;7738;49.532;11.156;2023-01-28T10:41:36;3.17;;;2.67;;
15273;SDS011;7738;49.532;11.156;2023-01-28T10:44:26;3.07;;;2.20;;
15273;SDS011;7738;49.532;11.156;2023-01-28T10:47:03;6.43;;;2.23;;
15273;SDS011;7738;49.532;11.156;2023-01-28T10:49:40;3.67;;;2.30;;
15273;SDS011;7738;49.532;11.156;2023-01-28T10:52:14;3.43;;;2.00;;
15273;SDS011;7738;49.532;11.156;2023-01-28T10:54:44;3.53;;;1.70;;
15273;SDS011;7738;49.532;11.156;2023-01-28T10:57:15;2.40;;;1.57;;
15273;SDS011;7738;49.532;11.156;2023-01-28T10:59:46;2.30;;;1.97;;
15273;SDS011;7738;49.532;11.156;2023-01-28T11:02:24;7.40;;;1.77;;
15273;SDS011;7738;49.532;11.156;2023-01-28T11:05:03;2.90;;;1.83;;
15273;SDS011;7738;49.532;11.156;2023-01-28T11:07:34;2.90;;;1.77;;
15273;SDS011;7738;49.532;11.156;2023-01-28T11:10:20;1.60;;;1.50;;
15273;SDS011;7738;49.532;11.156;2023-01-28T11:12:54;1.70;;;1.60;;
15273;SDS011;7738;49.532;11.156;2023-01-28T11:15:24;3.43;;;1.50;;
15273;SDS011;7738;49.532;11.156;2023-01-28T11:17:59;1.63;;;1.20;;
15273;SDS011;7738;49.532;11.156;2023-01-28T11:20:34;1.53;;;1.30;;
15273;SDS011;7738;49.532;11.156;2023-01-28T11:23:14;1.43;;;1.07;;
15273;SDS011;7738;49.532;11.156;2023-01-28T11:25:48;1.77;;;1.43;;
15273;SDS011;7738;49.532;11.156;2023-01-28T11:28:18;2.50;;;1.60;;
15273;SDS011;7738;49.532;11.156;2023-01-28T11:30:51;2.17;;;1.93;;
15273;SDS011;7738;49.532;11.156;2023-01-28T11:33:29;2.70;;;1.85;;
15273;SDS011;7738;49.532;11.156;2023-01-28T11:36:06;4.17;;;2.10;;
15273;SDS011;7738;49.532;11.156;2023-01-28T11:38:49;2.23;;;1.43;;
15273;SDS011;7738;49.532;11.156;2023-01-28T11:41:26;1.97;;;1.87;;
15273;SDS011;7738;49.532;11.156;2023-01-28T11:43:57;2.55;;;1.60;;
15273;SDS011;7738;49.532;11.156;2023-01-28T11:49:28;2.85;;;1.80;;
15273;SDS011;7738;49.532;11.156;2023-01-28T11:52:09;3.83;;;1.60;;
15273;SDS011;7738;49.532;11.156;2023-01-28T11:54:47;2.97;;;1.67;;
15273;SDS011;7738;49.532;11.156;2023-01-28T11:57:25;2.50;;;1.77;;
15273;SDS011;7738;49.532;11.156;2023-01-28T12:03:22;2.13;;;1.83;;
15273;SDS011;7738;49.532;11.156;2023-01-28T12:06:30;1.77;;;1.30;;
15273;SDS011;7738;49.532;11.156;2023-01-28T12:09:12;2.87;;;1.70;;
15273;SDS011;7738;49.532;11.156;2023-01-28T12:11:52;2.50;;;1.70;;
15273;SDS011;7738;49.532;11.156;2023-01-28T12:17:48;3.33;;;2.00;;
15273;SDS011;7738;49.532;11.156;2023-01-28T12:20:29;2.90;;;2.03;;
15273;SDS011;7738;49.532;11.156;2023-01-28T12:23:09;2.60;;;1.60;;
15273;SDS011;7738;49.532;11.156;2023-01-28T12:26:04;1.90;;;1.73;;
15273;SDS011;7738;49.532;11.156;2023-01-28T12:28:43;3.43;;;1.97;;
15273;SDS011;7738;49.532;11.156;2023-01-28T12:31:30;1.53;;;1.43;;
15273;SDS011;7738;49.532;11.156;2023-01-28T12:34:27;2.40;;;1.80;;
15273;SDS011;7738;49.532;11.156;2023-01-28T12:37:21;4.53;;;2.30;;
15273;SDS011;7738;49.532;11.156;2023-01-28T12:40:11;2.03;;;1.60;;
15273;SDS011;7738;49.532;11.156;2023-01-28T12:42:53;6.37;;;2.23;;
15273;SDS011;7738;49.532;11.156;2023-01-28T12:45:29;3.70;;;2.35;;
15273;SDS011;7738;49.532;11.156;2023-01-28T12:48:07;1.90;;;1.60;;
15273;SDS011;7738;49.532;11.156;2023-01-28T12:50:41;3.80;;;1.80;;
15273;SDS011;7738;49.532;11.156;2023-01-28T12:53:19;3.47;;;1.80;;
15273;SDS011;7738;49.532;11.156;2023-01-28T12:55:58;3.03;;;1.83;;
15273;SDS011;7738;49.532;11.156;2023-01-28T12:58:36;2.00;;;1.53;;
15273;SDS011;7738;49.532;11.156;2023-01-28T13:01:12;3.13;;;1.40;;
15273;SDS011;7738;49.532;11.156;2023-01-28T13:03:48;2.97;;;1.77;;
15273;SDS011;7738;49.532;11.156;2023-01-28T13:06:23;2.17;;;1.70;;
15273;SDS011;7738;49.532;11.156;2023-01-28T13:08:59;3.50;;;1.50;;
15273;SDS011;7738;49.532;11.156;2023-01-28T13:11:34;2.70;;;1.93;;
15273;SDS011;7738;49.532;11.156;2023-01-28T13:14:05;2.85;;;1.83;;
15273;SDS011;7738;49.532;11.156;2023-01-28T13:16:38;1.60;;;1.20;;
15273;SDS011;7738;49.532;11.156;2023-01-28T13:19:19;2.63;;;1.67;;
15273;SDS011;7738;49.532;11.156;2023-01-28T13:21:52;2.97;;;2.10;;
15273;SDS011;7738;49.532;11.156;2023-01-28T13:24:29;1.50;;;1.40;;
15273;SDS011;7738;49.532;11.156;2023-01-28T13:27:11;2.40;;;1.70;;
15273;SDS011;7738;49.532;11.156;2023-01-28T13:29:59;4.17;;;2.13;;
15273;SDS011;7738;49.532;11.156;2023-01-28T13:32:33;2.40;;;2.13;;
15273;SDS011;7738;49.532;11.156;2023-01-28T13:35:05;3.00;;;1.60;;
15273;SDS011;7738;49.532;11.156;2023-01-28T13:37:36;2.27;;;1.53;;
15273;SDS011;7738;49.532;11.156;2023-01-28T13:40:21;2.17;;;1.60;;
15273;SDS011;7738;49.532;11.156;2023-01-28T13:43:01;2.57;;;1.47;;
15273;SDS011;7738;49.532;11.156;2023-01-28T13:45:33;2.13;;;1.70;;
15273;SDS011;7738;49.532;11.156;2023-01-28T13:48:14;4.33;;;1.97;;
15273;SDS011;7738;49.532;11.156;2023-01-28T13:50:52;2.30;;;2.10;;
15273;SDS011;7738;49.532;11.156;2023-01-28T13:53:26;1.70;;;1.60;;
15273;SDS011;7738;49.532;11.156;2023-01-28T13:56:05;3.10;;;1.90;;
15273;SDS011;7738;49.532;11.156;2023-01-28T13:59:08;2.47;;;2.00;;
15273;SDS011;7738;49.532;11.156;2023-01-28T14:02:02;6.13;;;2.17;;
15273;SDS011;7738;49.532;11.156;2023-01-28T14:08:20;3.20;;;2.23;;
15273;SDS011;7738;49.532;11.156;2023-01-28T14:11:14;2.70;;;2.15;;
15273;SDS011;7738;49.532;11.156;2023-01-28T14:17:01;2.47;;;2.07;;
15273;SDS011;7738;49.532;11.156;2023-01-28T14:19:38;3.20;;;2.13;;
15273;SDS011;7738;49.532;11.156;2023-01-28T14:22:12;4.50;;;2.67;;
15273;SDS011;7738;49.532;11.156;2023-01-28T14:24:46;3.97;;;2.70;;
15273;SDS011;7738;49.532;11.156;2023-01-28T14:27:17;7.40;;;2.47;;
15273;SDS011;7738;49.532;11.156;2023-01-28T14:29:58;3.83;;;2.60;;
15273;SDS011;7738;49.532;11.156;2023-01-28T14:32:36;5.90;;;2.07;;
15273;SDS011;7738;49.532;11.156;2023-01-28T14:35:15;3.50;;;2.57;;
15273;SDS011;7738;49.532;11.156;2023-01-28T14:37:48;2.90;;;2.65;;
15273;SDS011;7738;49.532;11.156;2023-01-28T14:40:18;4.07;;;2.30;;
15273;SDS011;7738;49.532;11.156;2023-01-28T14:42:50;3.53;;;2.90;;
15273;SDS011;7738;49.532;11.156;2023-01-28T14:45:28;3.97;;;3.13;;
15273;SDS011;7738;49.532;11.156;2023-01-28T14:51:00;5.93;;;3.10;;
15273;SDS011;7738;49.532;11.156;2023-01-28T14:56:57;20.43;;;8.93;;
15273;SDS011;7738;49.532;11.156;2023-01-28T14:59:40;8.17;;;5.03;;
15273;SDS011;7738;49.532;11.156;2023-01-28T15:02:19;22.67;;;9.55;;
15273;SDS011;7738;49.532;11.156;2023-01-28T15:04:51;5.00;;;3.57;;
15273;SDS011;7738;49.532;11.156;2023-01-28T15:07:22;5.17;;;3.27;;
15273;SDS011;7738;49.532;11.156;2023-01-28T15:10:00;4.27;;;3.33;;
15273;SDS011;7738;49.532;11.156;2023-01-28T15:12:32;4.00;;;2.93;;
15273;SDS011;7738;49.532;11.156;2023-01-28T15:15:08;3.63;;;3.33;;
15273;SDS011;7738;49.532;11.156;2023-01-28T15:17:42;6.97;;;3.57;;
15273;SDS011;7738;49.532;11.156;2023-01-28T15:20:15;3.87;;;2.93;;
15273;SDS011;7738;49.532;11.156;2023-01-28T15:22:47;4.97;;;4.03;;
15273;SDS011;7738;49.532;11.156;2023-01-28T15:25:19;4.13;;;3.17;;
15273;SDS011;7738;49.532;11.156;2023-01-28T15:27:51;4.40;;;3.33;;
15273;SDS011;7738;49.532;11.156;2023-01-28T15:30:24;4.27;;;3.67;;
15273;SDS011;7738;49.532;11.156;2023-01-28T15:33:03;7.10;;;3.30;;
15273;SDS011;7738;49.532;11.156;2023-01-28T15:35:35;4.77;;;3.57;;
15273;SDS011;7738;49.532;11.156;2023-01-28T15:38:05;5.40;;;3.30;;
15273;SDS011;7738;49.532;11.156;2023-01-28T15:40:38;5.33;;;4.13;;
15273;SDS011;7738;49.532;11.156;2023-01-28T15:45:44;4.30;;;3.00;;
15273;SDS011;7738;49.532;11.156;2023-01-28T15:48:18;3.40;;;3.10;;
15273;SDS011;7738;49.532;11.156;2023-01-28T15:50:48;6.03;;;3.93;;
15273;SDS011;7738;49.532;11.156;2023-01-28T15:53:28;3.67;;;2.90;;
15273;SDS011;7738;49.532;11.156;2023-01-28T15:56:05;4.30;;;3.83;;
15273;SDS011;7738;49.532;11.156;2023-01-28T15:58:37;4.77;;;2.70;;
15273;SDS011;7738;49.532;11.156;2023-01-28T16:01:11;3.53;;;2.57;;
15273;SDS011;7738;49.532;11.156;2023-01-28T16:03:46;3.47;;;2.77;;